Illusion — WBA4557 — position and weather

sailwx.info

Track history (hours):
 
Tides and Currents Weather Stations Pressure Air Temp Water Temp Dewpoint Dewpoint Depression Visibility Wind Speed Wind Dir Waves Ship Positions

Illusion

Owner: ILLUSION INC, GREENPORT, NY. More information available from US FCC via Universal Licensing System and Coast Guard Vessel Documentation Center.

Last reported at 2017-Sep-26 03:14 UTC. Time now 2017-Sep-26 16:35 UTC.
Position N 39°58' W 072°57'.

Length 26 m.

Type: Fishing. MMSI: 366218620.

Date/timePositionNaut miles runAvg speedWind from/ knotsBaromVisibWave heightAir tempDewpointWater temp
2017-Sep-26 03:14N 39°58' W 072°57'14 5.5
2017-Sep-26 00:47N 40°01' W 073°15'20 5.8
2017-Sep-25 21:18N 40°05' W 073°40'2 6.2
2017-Sep-25 20:55N 40°05' W 073°43'3 5.6
2017-Sep-25 20:23N 40°06' W 073°47'10 5.6
2017-Sep-25 18:35N 40°06' W 074°01'0 6.4
2017-Sep-25 18:30N 40°06' W 074°01'1 0.3
2017-Sep-25 15:18N 40°06' W 074°02'2 5.1
2017-Sep-25 14:59N 40°06' W 074°00'4 7.1
2017-Sep-25 14:28N 40°08' W 073°56'3 6.9
2017-Sep-25 14:00N 40°10' W 073°52'3 7.0
2017-Sep-25 13:30N 40°12' W 073°49'4 7.1
2017-Sep-25 13:01N 40°13' W 073°45'4 7.3
2017-Sep-25 12:27N 40°15' W 073°40'58 7.3
2017-Sep-25 04:29N 40°44' W 072°34'4 6.8
2017-Sep-25 03:57N 40°46' W 072°30'58 2.7
2017-Sep-24 06:24N 41°23' W 071°31'0 0.0
2017-Sep-24 06:00N 41°23' W 071°31'0 0.0
2017-Sep-24 05:30N 41°23' W 071°31'0 0.0
2017-Sep-24 05:00N 41°23' W 071°31'0 0.0
2017-Sep-24 04:30N 41°23' W 071°31'0 0.0
2017-Sep-24 04:00N 41°23' W 071°31'0 0.0
2017-Sep-24 03:30N 41°23' W 071°31'0 0.0
2017-Sep-24 03:00N 41°23' W 071°31'0 0.0
2017-Sep-24 02:21N 41°23' W 071°31'0 0.0
2017-Sep-24 01:54N 41°23' W 071°31'0 0.0
2017-Sep-23 22:04N 41°23' W 071°31'35 3.9
2017-Sep-23 13:00N 41°06' W 072°12'   090 / 151011.0 20.3
2017-Sep-19 11:56N 41°06' W 072°22'  
2017-Sep-17 02:02N 41°06' W 072°22'0 0.0
2017-Sep-17 01:56N 41°06' W 072°22'0 0.0
2017-Sep-17 01:24N 41°06' W 072°22'0 0.0
2017-Sep-17 00:54N 41°06' W 072°22'0 0.0
2017-Sep-17 00:30N 41°06' W 072°22'0 0.0
2017-Sep-16 23:35N 41°06' W 072°22'0 0.0
2017-Sep-16 23:25N 41°06' W 072°22'0 0.0
2017-Sep-16 22:51N 41°06' W 072°22'  
Track history (hours):
 
Tides and Currents Weather Stations Pressure Air Temp Water Temp Dewpoint Dewpoint Depression Visibility Wind Speed Wind Dir Waves Ship Positions

Illusion

Owner: ILLUSION INC, GREENPORT, NY. More information available from US FCC via Universal Licensing System and Coast Guard Vessel Documentation Center.

Last reported at 2017-Sep-26 03:14 UTC. Time now 2017-Sep-26 16:35 UTC.
Position N 39°58' W 072°57'.

Length 26 m.

Type: Fishing. MMSI: 366218620.

Date/timePositionNaut miles runAvg speedWind from/ knotsBaromVisibWave heightAir tempDewpointWater temp
2017-Sep-26 03:14N 39°58' W 072°57'14 5.5
2017-Sep-26 00:47N 40°01' W 073°15'20 5.8
2017-Sep-25 21:18N 40°05' W 073°40'2 6.2
2017-Sep-25 20:55N 40°05' W 073°43'3 5.6
2017-Sep-25 20:23N 40°06' W 073°47'10 5.6
2017-Sep-25 18:35N 40°06' W 074°01'0 6.4
2017-Sep-25 18:30N 40°06' W 074°01'1 0.3
2017-Sep-25 15:18N 40°06' W 074°02'2 5.1
2017-Sep-25 14:59N 40°06' W 074°00'4 7.1
2017-Sep-25 14:28N 40°08' W 073°56'3 6.9
2017-Sep-25 14:00N 40°10' W 073°52'3 7.0
2017-Sep-25 13:30N 40°12' W 073°49'4 7.1
2017-Sep-25 13:01N 40°13' W 073°45'4 7.3
2017-Sep-25 12:27N 40°15' W 073°40'58 7.3
2017-Sep-25 04:29N 40°44' W 072°34'4 6.8
2017-Sep-25 03:57N 40°46' W 072°30'58 2.7
2017-Sep-24 06:24N 41°23' W 071°31'0 0.0
2017-Sep-24 06:00N 41°23' W 071°31'0 0.0
2017-Sep-24 05:30N 41°23' W 071°31'0 0.0
2017-Sep-24 05:00N 41°23' W 071°31'0 0.0
2017-Sep-24 04:30N 41°23' W 071°31'0 0.0
2017-Sep-24 04:00N 41°23' W 071°31'0 0.0
2017-Sep-24 03:30N 41°23' W 071°31'0 0.0
2017-Sep-24 03:00N 41°23' W 071°31'0 0.0
2017-Sep-24 02:21N 41°23' W 071°31'0 0.0
2017-Sep-24 01:54N 41°23' W 071°31'0 0.0
2017-Sep-23 22:04N 41°23' W 071°31'35 3.9
2017-Sep-23 13:00N 41°06' W 072°12'   090 / 151011.0 20.3
2017-Sep-19 11:56N 41°06' W 072°22'  
2017-Sep-17 02:02N 41°06' W 072°22'0 0.0
2017-Sep-17 01:56N 41°06' W 072°22'0 0.0
2017-Sep-17 01:24N 41°06' W 072°22'0 0.0
2017-Sep-17 00:54N 41°06' W 072°22'0 0.0
2017-Sep-17 00:30N 41°06' W 072°22'0 0.0
2017-Sep-16 23:35N 41°06' W 072°22'0 0.0
2017-Sep-16 23:25N 41°06' W 072°22'0 0.0
2017-Sep-16 22:51N 41°06' W 072°22'  

Dump ship's entire track history